sensor_id;sensor_type;location;lat;lon;timestamp;temperature;humidity
17954;DHT22;9102;53.548;9.926;2023-08-07T00:01:45;16.00;99.90
17954;DHT22;9102;53.548;9.926;2023-08-07T00:04:12;16.00;99.90
17954;DHT22;9102;53.548;9.926;2023-08-07T00:06:39;16.00;99.90
17954;DHT22;9102;53.548;9.926;2023-08-07T00:09:06;15.90;99.90
17954;DHT22;9102;53.548;9.926;2023-08-07T00:11:34;16.00;99.90
17954;DHT22;9102;53.548;9.926;2023-08-07T00:14:01;15.80;99.90
17954;DHT22;9102;53.548;9.926;2023-08-07T00:16:27;15.80;99.90
17954;DHT22;9102;53.548;9.926;2023-08-07T00:18:54;15.90;99.90
17954;DHT22;9102;53.548;9.926;2023-08-07T00:21:21;15.90;99.90
17954;DHT22;9102;53.548;9.926;2023-08-07T00:23:48;15.80;99.90
17954;DHT22;9102;53.548;9.926;2023-08-07T00:26:15;15.70;99.90
17954;DHT22;9102;53.548;9.926;2023-08-07T00:28:43;15.80;99.90
17954;DHT22;9102;53.548;9.926;2023-08-07T00:31:10;15.70;99.90
17954;DHT22;9102;53.548;9.926;2023-08-07T00:33:37;15.70;99.90
17954;DHT22;9102;53.548;9.926;2023-08-07T00:36:04;15.70;99.90
17954;DHT22;9102;53.548;9.926;2023-08-07T00:38:31;15.70;99.90
17954;DHT22;9102;53.548;9.926;2023-08-07T00:40:58;15.70;99.90
17954;DHT22;9102;53.548;9.926;2023-08-07T00:43:26;15.70;99.90
17954;DHT22;9102;53.548;9.926;2023-08-07T00:45:54;15.70;99.90
17954;DHT22;9102;53.548;9.926;2023-08-07T00:48:21;15.70;99.90
17954;DHT22;9102;53.548;9.926;2023-08-07T00:50:48;15.70;99.90
17954;DHT22;9102;53.548;9.926;2023-08-07T00:53:16;15.70;99.90
17954;DHT22;9102;53.548;9.926;2023-08-07T00:55:43;15.70;99.90
17954;DHT22;9102;53.548;9.926;2023-08-07T00:58:10;15.70;99.90
17954;DHT22;9102;53.548;9.926;2023-08-07T01:00:37;15.80;99.90
17954;DHT22;9102;53.548;9.926;2023-08-07T01:03:08;15.70;99.90
17954;DHT22;9102;53.548;9.926;2023-08-07T01:05:37;15.80;99.90
17954;DHT22;9102;53.548;9.926;2023-08-07T01:08:04;15.80;99.90
17954;DHT22;9102;53.548;9.926;2023-08-07T01:10:35;15.70;99.90
17954;DHT22;9102;53.548;9.926;2023-08-07T01:13:10;15.80;99.90
17954;DHT22;9102;53.548;9.926;2023-08-07T01:15:39;15.70;99.90
17954;DHT22;9102;53.548;9.926;2023-08-07T01:18:08;15.70;99.90
17954;DHT22;9102;53.548;9.926;2023-08-07T01:20:35;15.70;99.90
17954;DHT22;9102;53.548;9.926;2023-08-07T01:23:04;15.60;99.90
17954;DHT22;9102;53.548;9.926;2023-08-07T01:25:31;15.70;99.90
17954;DHT22;9102;53.548;9.926;2023-08-07T01:28:02;15.60;99.90
17954;DHT22;9102;53.548;9.926;2023-08-07T01:30:33;15.60;99.90
17954;DHT22;9102;53.548;9.926;2023-08-07T01:33:09;15.60;99.90
17954;DHT22;9102;53.548;9.926;2023-08-07T01:35:41;15.60;99.90
17954;DHT22;9102;53.548;9.926;2023-08-07T01:38:11;15.60;99.90
17954;DHT22;9102;53.548;9.926;2023-08-07T01:40:39;15.60;99.90
17954;DHT22;9102;53.548;9.926;2023-08-07T01:43:06;15.50;99.90
17954;DHT22;9102;53.548;9.926;2023-08-07T01:45:33;15.60;99.90
17954;DHT22;9102;53.548;9.926;2023-08-07T01:48:00;15.50;99.90
17954;DHT22;9102;53.548;9.926;2023-08-07T01:50:28;15.40;99.90
17954;DHT22;9102;53.548;9.926;2023-08-07T01:52:55;15.60;99.90
17954;DHT22;9102;53.548;9.926;2023-08-07T01:55:23;15.60;99.90
17954;DHT22;9102;53.548;9.926;2023-08-07T01:57:50;15.60;99.90
17954;DHT22;9102;53.548;9.926;2023-08-07T02:00:17;15.50;99.90
17954;DHT22;9102;53.548;9.926;2023-08-07T02:02:44;15.50;99.90
17954;DHT22;9102;53.548;9.926;2023-08-07T02:05:12;15.50;99.90
17954;DHT22;9102;53.548;9.926;2023-08-07T02:07:39;15.50;99.90
17954;DHT22;9102;53.548;9.926;2023-08-07T02:10:06;15.40;99.90
17954;DHT22;9102;53.548;9.926;2023-08-07T02:12:34;15.40;99.90
17954;DHT22;9102;53.548;9.926;2023-08-07T02:15:02;15.40;99.90
17954;DHT22;9102;53.548;9.926;2023-08-07T02:17:28;15.40;99.90
17954;DHT22;9102;53.548;9.926;2023-08-07T02:19:56;15.40;99.90
17954;DHT22;9102;53.548;9.926;2023-08-07T02:22:23;15.40;99.90
17954;DHT22;9102;53.548;9.926;2023-08-07T02:24:50;15.40;99.90
17954;DHT22;9102;53.548;9.926;2023-08-07T02:27:17;15.40;99.90
17954;DHT22;9102;53.548;9.926;2023-08-07T02:29:45;15.30;99.90
17954;DHT22;9102;53.548;9.926;2023-08-07T02:32:12;15.40;99.90
17954;DHT22;9102;53.548;9.926;2023-08-07T02:34:39;15.30;99.90
17954;DHT22;9102;53.548;9.926;2023-08-07T02:37:06;15.30;99.90
17954;DHT22;9102;53.548;9.926;2023-08-07T02:39:32;15.30;99.90
17954;DHT22;9102;53.548;9.926;2023-08-07T02:41:59;15.30;99.90
17954;DHT22;9102;53.548;9.926;2023-08-07T02:44:26;15.30;99.90
17954;DHT22;9102;53.548;9.926;2023-08-07T02:46:54;15.30;99.90
17954;DHT22;9102;53.548;9.926;2023-08-07T02:49:21;15.30;99.90
17954;DHT22;9102;53.548;9.926;2023-08-07T02:51:48;15.40;99.90
17954;DHT22;9102;53.548;9.926;2023-08-07T02:54:15;15.30;99.90
17954;DHT22;9102;53.548;9.926;2023-08-07T02:56:41;15.30;99.90
17954;DHT22;9102;53.548;9.926;2023-08-07T02:59:08;15.20;99.90
17954;DHT22;9102;53.548;9.926;2023-08-07T03:01:35;15.20;99.90
17954;DHT22;9102;53.548;9.926;2023-08-07T03:04:03;15.30;99.90
17954;DHT22;9102;53.548;9.926;2023-08-07T03:06:30;15.30;99.90
17954;DHT22;9102;53.548;9.926;2023-08-07T03:08:57;15.30;99.90
17954;DHT22;9102;53.548;9.926;2023-08-07T03:11:24;15.30;99.90
17954;DHT22;9102;53.548;9.926;2023-08-07T03:13:51;15.30;99.90
17954;DHT22;9102;53.548;9.926;2023-08-07T03:16:17;15.30;99.90
17954;DHT22;9102;53.548;9.926;2023-08-07T03:18:45;15.30;99.90
17954;DHT22;9102;53.548;9.926;2023-08-07T03:21:13;15.30;99.90
17954;DHT22;9102;53.548;9.926;2023-08-07T03:23:40;15.30;99.90
17954;DHT22;9102;53.548;9.926;2023-08-07T03:26:08;15.30;99.90
17954;DHT22;9102;53.548;9.926;2023-08-07T03:28:36;15.30;99.90
17954;DHT22;9102;53.548;9.926;2023-08-07T03:31:03;15.30;99.90
17954;DHT22;9102;53.548;9.926;2023-08-07T03:33:30;15.30;99.90
17954;DHT22;9102;53.548;9.926;2023-08-07T03:35:56;15.30;99.90
17954;DHT22;9102;53.548;9.926;2023-08-07T03:38:25;15.30;99.90
17954;DHT22;9102;53.548;9.926;2023-08-07T03:40:52;15.30;99.90
17954;DHT22;9102;53.548;9.926;2023-08-07T03:43:19;15.30;99.90
17954;DHT22;9102;53.548;9.926;2023-08-07T03:45:45;15.30;99.90
17954;DHT22;9102;53.548;9.926;2023-08-07T03:48:12;15.30;99.90
17954;DHT22;9102;53.548;9.926;2023-08-07T03:50:39;15.40;99.90
17954;DHT22;9102;53.548;9.926;2023-08-07T03:53:06;15.30;99.90
17954;DHT22;9102;53.548;9.926;2023-08-07T03:55:34;15.30;99.90
17954;DHT22;9102;53.548;9.926;2023-08-07T03:58:01;15.40;99.90
17954;DHT22;9102;53.548;9.926;2023-08-07T04:00:28;15.30;99.90
17954;DHT22;9102;53.548;9.926;2023-08-07T04:02:55;15.30;99.90
17954;DHT22;9102;53.548;9.926;2023-08-07T04:05:22;15.30;99.90
17954;DHT22;9102;53.548;9.926;2023-08-07T04:07:49;15.30;99.90
17954;DHT22;9102;53.548;9.926;2023-08-07T04:10:16;15.40;99.90
17954;DHT22;9102;53.548;9.926;2023-08-07T04:12:44;15.40;99.90
17954;DHT22;9102;53.548;9.926;2023-08-07T04:15:11;15.40;99.90
17954;DHT22;9102;53.548;9.926;2023-08-07T04:17:37;15.40;99.90
17954;DHT22;9102;53.548;9.926;2023-08-07T04:20:06;15.40;99.90
17954;DHT22;9102;53.548;9.926;2023-08-07T04:22:33;15.50;99.90
17954;DHT22;9102;53.548;9.926;2023-08-07T04:25:01;15.40;99.90
17954;DHT22;9102;53.548;9.926;2023-08-07T04:27:28;15.50;99.90
17954;DHT22;9102;53.548;9.926;2023-08-07T04:29:56;15.50;99.90
17954;DHT22;9102;53.548;9.926;2023-08-07T04:32:23;15.50;99.90
17954;DHT22;9102;53.548;9.926;2023-08-07T04:34:50;15.50;99.90
17954;DHT22;9102;53.548;9.926;2023-08-07T04:37:17;15.50;99.90
17954;DHT22;9102;53.548;9.926;2023-08-07T04:39:44;15.50;99.90
17954;DHT22;9102;53.548;9.926;2023-08-07T04:42:11;15.60;99.90
17954;DHT22;9102;53.548;9.926;2023-08-07T04:44:37;15.50;99.90
17954;DHT22;9102;53.548;9.926;2023-08-07T04:47:07;15.60;99.90
17954;DHT22;9102;53.548;9.926;2023-08-07T04:49:34;15.60;99.90
17954;DHT22;9102;53.548;9.926;2023-08-07T04:52:00;15.60;99.90
17954;DHT22;9102;53.548;9.926;2023-08-07T04:54:27;15.60;99.90
17954;DHT22;9102;53.548;9.926;2023-08-07T04:56:54;15.70;99.90
17954;DHT22;9102;53.548;9.926;2023-08-07T04:59:21;15.70;99.90
17954;DHT22;9102;53.548;9.926;2023-08-07T05:01:48;15.70;99.90
17954;DHT22;9102;53.548;9.926;2023-08-07T05:04:16;15.80;99.90
17954;DHT22;9102;53.548;9.926;2023-08-07T05:06:43;15.80;99.90
17954;DHT22;9102;53.548;9.926;2023-08-07T05:09:10;15.90;99.90
17954;DHT22;9102;53.548;9.926;2023-08-07T05:11:36;15.90;99.90
17954;DHT22;9102;53.548;9.926;2023-08-07T05:14:03;16.00;99.90
17954;DHT22;9102;53.548;9.926;2023-08-07T05:16:30;16.00;99.90
17954;DHT22;9102;53.548;9.926;2023-08-07T05:18:57;16.10;99.90
17954;DHT22;9102;53.548;9.926;2023-08-07T05:21:25;16.10;99.90
17954;DHT22;9102;53.548;9.926;2023-08-07T05:23:52;16.10;99.90
17954;DHT22;9102;53.548;9.926;2023-08-07T05:26:20;16.20;99.90
17954;DHT22;9102;53.548;9.926;2023-08-07T05:28:47;16.20;99.90
17954;DHT22;9102;53.548;9.926;2023-08-07T05:31:14;16.40;99.90
17954;DHT22;9102;53.548;9.926;2023-08-07T05:33:41;16.30;99.90
17954;DHT22;9102;53.548;9.926;2023-08-07T05:36:08;16.40;99.90
17954;DHT22;9102;53.548;9.926;2023-08-07T05:38:36;16.50;99.90
17954;DHT22;9102;53.548;9.926;2023-08-07T05:41:02;16.40;99.90
17954;DHT22;9102;53.548;9.926;2023-08-07T05:43:29;16.50;99.90
17954;DHT22;9102;53.548;9.926;2023-08-07T05:45:56;16.50;99.90
17954;DHT22;9102;53.548;9.926;2023-08-07T05:48:23;16.50;99.90
17954;DHT22;9102;53.548;9.926;2023-08-07T05:50:51;16.50;99.90
17954;DHT22;9102;53.548;9.926;2023-08-07T05:53:18;16.50;99.90
17954;DHT22;9102;53.548;9.926;2023-08-07T05:55:46;16.40;99.90
17954;DHT22;9102;53.548;9.926;2023-08-07T05:58:13;16.40;99.90
17954;DHT22;9102;53.548;9.926;2023-08-07T06:00:39;16.40;99.90
17954;DHT22;9102;53.548;9.926;2023-08-07T06:03:06;16.40;99.90
17954;DHT22;9102;53.548;9.926;2023-08-07T06:05:33;16.40;99.90
17954;DHT22;9102;53.548;9.926;2023-08-07T06:08:01;16.50;99.90
17954;DHT22;9102;53.548;9.926;2023-08-07T06:10:28;16.60;99.90
17954;DHT22;9102;53.548;9.926;2023-08-07T06:12:56;16.70;99.90
17954;DHT22;9102;53.548;9.926;2023-08-07T06:15:22;16.70;99.90
17954;DHT22;9102;53.548;9.926;2023-08-07T06:17:49;16.80;99.90
17954;DHT22;9102;53.548;9.926;2023-08-07T06:20:17;16.70;99.90
17954;DHT22;9102;53.548;9.926;2023-08-07T06:22:44;16.70;99.90
17954;DHT22;9102;53.548;9.926;2023-08-07T06:25:11;16.70;99.90
17954;DHT22;9102;53.548;9.926;2023-08-07T06:27:37;16.70;99.90
17954;DHT22;9102;53.548;9.926;2023-08-07T06:30:07;16.80;99.90
17954;DHT22;9102;53.548;9.926;2023-08-07T06:32:34;16.90;99.90
17954;DHT22;9102;53.548;9.926;2023-08-07T06:35:02;16.90;99.90
17954;DHT22;9102;53.548;9.926;2023-08-07T06:37:30;17.00;99.90
17954;DHT22;9102;53.548;9.926;2023-08-07T06:39:56;17.00;99.90
17954;DHT22;9102;53.548;9.926;2023-08-07T06:42:23;17.00;99.90
17954;DHT22;9102;53.548;9.926;2023-08-07T06:44:50;17.00;99.90
17954;DHT22;9102;53.548;9.926;2023-08-07T06:47:18;17.00;99.90
17954;DHT22;9102;53.548;9.926;2023-08-07T06:49:45;17.00;99.90
17954;DHT22;9102;53.548;9.926;2023-08-07T06:52:12;16.90;99.90
17954;DHT22;9102;53.548;9.926;2023-08-07T06:54:39;16.90;99.90
17954;DHT22;9102;53.548;9.926;2023-08-07T06:57:05;16.90;99.90
17954;DHT22;9102;53.548;9.926;2023-08-07T06:59:32;16.80;99.90
17954;DHT22;9102;53.548;9.926;2023-08-07T07:01:59;16.90;99.90
17954;DHT22;9102;53.548;9.926;2023-08-07T07:04:28;16.90;99.90
17954;DHT22;9102;53.548;9.926;2023-08-07T07:06:55;17.10;99.90
17954;DHT22;9102;53.548;9.926;2023-08-07T07:09:22;17.20;99.90
17954;DHT22;9102;53.548;9.926;2023-08-07T07:11:48;16.90;99.90
17954;DHT22;9102;53.548;9.926;2023-08-07T07:14:15;16.30;99.90
17954;DHT22;9102;53.548;9.926;2023-08-07T07:16:42;15.60;99.90
17954;DHT22;9102;53.548;9.926;2023-08-07T07:19:09;15.30;99.90
17954;DHT22;9102;53.548;9.926;2023-08-07T07:21:37;15.20;99.90
17954;DHT22;9102;53.548;9.926;2023-08-07T07:24:04;15.10;99.90
17954;DHT22;9102;53.548;9.926;2023-08-07T07:26:31;15.10;99.90
17954;DHT22;9102;53.548;9.926;2023-08-07T07:28:58;15.00;99.90
17954;DHT22;9102;53.548;9.926;2023-08-07T07:31:25;15.10;99.90
17954;DHT22;9102;53.548;9.926;2023-08-07T07:33:52;15.20;99.90
17954;DHT22;9102;53.548;9.926;2023-08-07T07:36:19;15.20;99.90
17954;DHT22;9102;53.548;9.926;2023-08-07T07:38:47;15.20;99.90
17954;DHT22;9102;53.548;9.926;2023-08-07T07:41:14;15.10;99.90
17954;DHT22;9102;53.548;9.926;2023-08-07T07:43:41;15.00;99.90
17954;DHT22;9102;53.548;9.926;2023-08-07T07:46:08;15.00;99.90
17954;DHT22;9102;53.548;9.926;2023-08-07T07:48:35;15.20;99.90
17954;DHT22;9102;53.548;9.926;2023-08-07T07:51:02;15.40;99.90
17954;DHT22;9102;53.548;9.926;2023-08-07T07:53:30;15.60;99.90
17954;DHT22;9102;53.548;9.926;2023-08-07T07:55:58;15.90;99.90
17954;DHT22;9102;53.548;9.926;2023-08-07T07:58:25;16.20;99.90
17954;DHT22;9102;53.548;9.926;2023-08-07T08:00:51;16.50;99.90
17954;DHT22;9102;53.548;9.926;2023-08-07T08:03:20;16.80;99.90
17954;DHT22;9102;53.548;9.926;2023-08-07T08:05:49;17.00;99.90
17954;DHT22;9102;53.548;9.926;2023-08-07T08:08:16;17.10;99.90
17954;DHT22;9102;53.548;9.926;2023-08-07T08:10:43;17.00;99.90
17954;DHT22;9102;53.548;9.926;2023-08-07T08:13:13;16.90;99.90
17954;DHT22;9102;53.548;9.926;2023-08-07T08:15:40;16.60;99.90
17954;DHT22;9102;53.548;9.926;2023-08-07T08:18:07;16.10;99.90
17954;DHT22;9102;53.548;9.926;2023-08-07T08:20:34;15.50;99.90
17954;DHT22;9102;53.548;9.926;2023-08-07T08:23:01;15.40;99.90
17954;DHT22;9102;53.548;9.926;2023-08-07T08:25:28;15.20;99.90
17954;DHT22;9102;53.548;9.926;2023-08-07T08:27:55;15.20;99.90
17954;DHT22;9102;53.548;9.926;2023-08-07T08:30:23;15.30;99.90
17954;DHT22;9102;53.548;9.926;2023-08-07T08:32:50;15.40;99.90
17954;DHT22;9102;53.548;9.926;2023-08-07T08:35:17;15.50;99.90
17954;DHT22;9102;53.548;9.926;2023-08-07T08:37:44;15.50;99.90
17954;DHT22;9102;53.548;9.926;2023-08-07T08:40:11;15.50;99.90
17954;DHT22;9102;53.548;9.926;2023-08-07T08:42:43;15.60;99.90
17954;DHT22;9102;53.548;9.926;2023-08-07T08:45:12;15.50;99.90
17954;DHT22;9102;53.548;9.926;2023-08-07T08:47:41;15.70;99.90
17954;DHT22;9102;53.548;9.926;2023-08-07T08:50:10;16.00;99.90
17954;DHT22;9102;53.548;9.926;2023-08-07T08:52:41;16.50;99.90
17954;DHT22;9102;53.548;9.926;2023-08-07T08:55:09;16.70;99.90
17954;DHT22;9102;53.548;9.926;2023-08-07T08:57:37;16.80;99.90
17954;DHT22;9102;53.548;9.926;2023-08-07T09:00:05;16.80;99.90
17954;DHT22;9102;53.548;9.926;2023-08-07T09:02:43;16.70;99.90
17954;DHT22;9102;53.548;9.926;2023-08-07T09:05:10;16.80;99.90
17954;DHT22;9102;53.548;9.926;2023-08-07T09:07:37;17.00;99.90
17954;DHT22;9102;53.548;9.926;2023-08-07T09:10:05;17.10;99.90
17954;DHT22;9102;53.548;9.926;2023-08-07T09:12:33;17.30;99.90
17954;DHT22;9102;53.548;9.926;2023-08-07T09:15:02;17.30;99.90
17954;DHT22;9102;53.548;9.926;2023-08-07T09:17:33;17.40;99.90
17954;DHT22;9102;53.548;9.926;2023-08-07T09:20:03;17.60;99.90
17954;DHT22;9102;53.548;9.926;2023-08-07T09:22:32;17.60;99.90
17954;DHT22;9102;53.548;9.926;2023-08-07T09:24:59;17.60;99.90
17954;DHT22;9102;53.548;9.926;2023-08-07T09:27:26;17.70;99.90
17954;DHT22;9102;53.548;9.926;2023-08-07T09:29:55;17.80;99.90
17954;DHT22;9102;53.548;9.926;2023-08-07T09:32:22;17.90;99.90
17954;DHT22;9102;53.548;9.926;2023-08-07T09:34:50;18.00;99.90
17954;DHT22;9102;53.548;9.926;2023-08-07T09:37:18;18.30;99.90
17954;DHT22;9102;53.548;9.926;2023-08-07T09:39:46;18.30;99.90
17954;DHT22;9102;53.548;9.926;2023-08-07T09:42:13;18.30;99.90
17954;DHT22;9102;53.548;9.926;2023-08-07T09:44:41;18.30;99.90
17954;DHT22;9102;53.548;9.926;2023-08-07T09:47:12;18.40;99.90
17954;DHT22;9102;53.548;9.926;2023-08-07T09:49:40;18.40;99.90
17954;DHT22;9102;53.548;9.926;2023-08-07T09:52:08;18.30;99.90
17954;DHT22;9102;53.548;9.926;2023-08-07T09:54:37;18.40;99.90
17954;DHT22;9102;53.548;9.926;2023-08-07T09:57:04;18.40;99.90
17954;DHT22;9102;53.548;9.926;2023-08-07T09:59:32;18.40;99.90
17954;DHT22;9102;53.548;9.926;2023-08-07T10:02:00;18.40;99.90
17954;DHT22;9102;53.548;9.926;2023-08-07T10:04:29;18.50;99.90
17954;DHT22;9102;53.548;9.926;2023-08-07T10:06:56;18.40;99.90
17954;DHT22;9102;53.548;9.926;2023-08-07T10:09:24;18.50;99.90
17954;DHT22;9102;53.548;9.926;2023-08-07T10:11:52;18.50;99.90
17954;DHT22;9102;53.548;9.926;2023-08-07T10:14:19;18.60;99.90
17954;DHT22;9102;53.548;9.926;2023-08-07T10:16:46;18.90;99.90
17954;DHT22;9102;53.548;9.926;2023-08-07T10:19:13;19.20;99.90
17954;DHT22;9102;53.548;9.926;2023-08-07T10:21:40;19.30;99.90
17954;DHT22;9102;53.548;9.926;2023-08-07T10:24:09;19.50;99.90
17954;DHT22;9102;53.548;9.926;2023-08-07T10:26:39;19.50;99.90
17954;DHT22;9102;53.548;9.926;2023-08-07T10:29:13;19.50;99.90
17954;DHT22;9102;53.548;9.926;2023-08-07T10:31:41;19.50;99.90
17954;DHT22;9102;53.548;9.926;2023-08-07T10:34:09;19.30;99.90
17954;DHT22;9102;53.548;9.926;2023-08-07T10:36:37;19.00;99.90
17954;DHT22;9102;53.548;9.926;2023-08-07T10:39:08;18.60;99.90
17954;DHT22;9102;53.548;9.926;2023-08-07T10:41:39;18.40;99.90
17954;DHT22;9102;53.548;9.926;2023-08-07T10:44:17;18.30;99.90
17954;DHT22;9102;53.548;9.926;2023-08-07T10:46:48;18.20;99.90
17954;DHT22;9102;53.548;9.926;2023-08-07T10:49:31;18.10;99.90
17954;DHT22;9102;53.548;9.926;2023-08-07T10:51:59;18.10;99.90
17954;DHT22;9102;53.548;9.926;2023-08-07T10:54:26;18.50;99.90
17954;DHT22;9102;53.548;9.926;2023-08-07T10:56:53;18.80;99.90
17954;DHT22;9102;53.548;9.926;2023-08-07T10:59:22;19.30;99.90
17954;DHT22;9102;53.548;9.926;2023-08-07T11:01:55;19.40;99.90
17954;DHT22;9102;53.548;9.926;2023-08-07T11:04:22;19.30;99.90
17954;DHT22;9102;53.548;9.926;2023-08-07T11:06:51;19.30;99.90
17954;DHT22;9102;53.548;9.926;2023-08-07T11:09:18;19.50;99.90
17954;DHT22;9102;53.548;9.926;2023-08-07T11:11:47;19.60;99.90
17954;DHT22;9102;53.548;9.926;2023-08-07T11:14:15;19.80;99.90
17954;DHT22;9102;53.548;9.926;2023-08-07T11:16:45;19.80;99.90
17954;DHT22;9102;53.548;9.926;2023-08-07T11:19:13;19.60;99.90
17954;DHT22;9102;53.548;9.926;2023-08-07T11:21:41;19.20;99.90
17954;DHT22;9102;53.548;9.926;2023-08-07T11:24:11;18.20;99.90
17954;DHT22;9102;53.548;9.926;2023-08-07T11:26:39;17.40;99.90
17954;DHT22;9102;53.548;9.926;2023-08-07T11:29:06;16.70;99.90
17954;DHT22;9102;53.548;9.926;2023-08-07T11:31:32;16.50;99.90
17954;DHT22;9102;53.548;9.926;2023-08-07T11:34:01;16.70;99.90
17954;DHT22;9102;53.548;9.926;2023-08-07T11:36:29;16.80;99.90
17954;DHT22;9102;53.548;9.926;2023-08-07T11:38:57;17.10;99.90
17954;DHT22;9102;53.548;9.926;2023-08-07T11:41:23;17.30;99.90
17954;DHT22;9102;53.548;9.926;2023-08-07T11:43:50;17.60;99.90
17954;DHT22;9102;53.548;9.926;2023-08-07T11:46:17;17.80;99.90
17954;DHT22;9102;53.548;9.926;2023-08-07T11:48:44;18.10;99.90
17954;DHT22;9102;53.548;9.926;2023-08-07T11:51:13;18.30;99.90
17954;DHT22;9102;53.548;9.926;2023-08-07T11:53:41;18.10;99.90
17954;DHT22;9102;53.548;9.926;2023-08-07T11:56:09;17.70;99.90
17954;DHT22;9102;53.548;9.926;2023-08-07T11:58:38;17.10;99.90
17954;DHT22;9102;53.548;9.926;2023-08-07T12:01:05;16.40;99.90
17954;DHT22;9102;53.548;9.926;2023-08-07T12:03:34;16.00;99.90
17954;DHT22;9102;53.548;9.926;2023-08-07T12:06:04;15.80;99.90
17954;DHT22;9102;53.548;9.926;2023-08-07T12:08:34;15.90;99.90
17954;DHT22;9102;53.548;9.926;2023-08-07T12:11:02;16.20;99.90
17954;DHT22;9102;53.548;9.926;2023-08-07T12:13:30;16.40;99.90
17954;DHT22;9102;53.548;9.926;2023-08-07T12:15:57;16.30;99.90
17954;DHT22;9102;53.548;9.926;2023-08-07T12:18:26;15.80;99.90
17954;DHT22;9102;53.548;9.926;2023-08-07T12:20:57;15.40;99.90
17954;DHT22;9102;53.548;9.926;2023-08-07T12:23:25;15.00;99.90
17954;DHT22;9102;53.548;9.926;2023-08-07T12:25:53;14.80;99.90
17954;DHT22;9102;53.548;9.926;2023-08-07T12:28:21;14.90;99.90
17954;DHT22;9102;53.548;9.926;2023-08-07T12:30:50;15.20;99.90
17954;DHT22;9102;53.548;9.926;2023-08-07T12:33:17;15.40;99.90
17954;DHT22;9102;53.548;9.926;2023-08-07T12:35:44;15.70;99.90
17954;DHT22;9102;53.548;9.926;2023-08-07T12:38:11;15.90;99.90
17954;DHT22;9102;53.548;9.926;2023-08-07T12:40:39;15.80;99.90
17954;DHT22;9102;53.548;9.926;2023-08-07T12:43:08;15.80;99.90
17954;DHT22;9102;53.548;9.926;2023-08-07T12:45:35;15.80;99.90
17954;DHT22;9102;53.548;9.926;2023-08-07T12:48:02;15.70;99.90
17954;DHT22;9102;53.548;9.926;2023-08-07T12:50:30;15.60;99.90
17954;DHT22;9102;53.548;9.926;2023-08-07T12:52:57;16.00;99.90
17954;DHT22;9102;53.548;9.926;2023-08-07T12:55:24;16.10;99.90
17954;DHT22;9102;53.548;9.926;2023-08-07T12:57:52;16.50;99.90
17954;DHT22;9102;53.548;9.926;2023-08-07T13:00:21;16.60;99.90
17954;DHT22;9102;53.548;9.926;2023-08-07T13:02:49;16.60;99.90
17954;DHT22;9102;53.548;9.926;2023-08-07T13:05:17;16.50;99.90
17954;DHT22;9102;53.548;9.926;2023-08-07T13:07:45;16.10;99.90
17954;DHT22;9102;53.548;9.926;2023-08-07T13:10:14;15.80;99.90
17954;DHT22;9102;53.548;9.926;2023-08-07T13:12:42;15.60;99.90
17954;DHT22;9102;53.548;9.926;2023-08-07T13:15:12;15.70;99.90
17954;DHT22;9102;53.548;9.926;2023-08-07T13:17:40;15.80;99.90
17954;DHT22;9102;53.548;9.926;2023-08-07T13:20:09;15.90;99.90
17954;DHT22;9102;53.548;9.926;2023-08-07T13:22:38;16.20;99.90
17954;DHT22;9102;53.548;9.926;2023-08-07T13:25:06;16.40;99.90
17954;DHT22;9102;53.548;9.926;2023-08-07T13:27:34;16.70;99.90
17954;DHT22;9102;53.548;9.926;2023-08-07T13:30:01;16.80;99.90
17954;DHT22;9102;53.548;9.926;2023-08-07T13:32:28;16.90;99.90
17954;DHT22;9102;53.548;9.926;2023-08-07T13:34:57;17.20;99.90
17954;DHT22;9102;53.548;9.926;2023-08-07T13:37:24;17.40;99.90
17954;DHT22;9102;53.548;9.926;2023-08-07T13:39:50;17.40;99.90
17954;DHT22;9102;53.548;9.926;2023-08-07T13:42:18;17.50;99.90
17954;DHT22;9102;53.548;9.926;2023-08-07T13:44:45;17.40;99.90
17954;DHT22;9102;53.548;9.926;2023-08-07T13:47:12;17.70;99.90
17954;DHT22;9102;53.548;9.926;2023-08-07T13:49:41;17.80;99.90
17954;DHT22;9102;53.548;9.926;2023-08-07T13:52:09;17.70;99.90
17954;DHT22;9102;53.548;9.926;2023-08-07T13:54:36;17.80;99.90
17954;DHT22;9102;53.548;9.926;2023-08-07T13:57:03;17.90;99.90
17954;DHT22;9102;53.548;9.926;2023-08-07T13:59:30;17.70;99.90
17954;DHT22;9102;53.548;9.926;2023-08-07T14:01:57;17.70;99.90
17954;DHT22;9102;53.548;9.926;2023-08-07T14:04:25;17.90;99.90
17954;DHT22;9102;53.548;9.926;2023-08-07T14:06:52;17.80;99.90
17954;DHT22;9102;53.548;9.926;2023-08-07T14:09:20;17.80;99.90
17954;DHT22;9102;53.548;9.926;2023-08-07T14:11:48;17.80;99.90
17954;DHT22;9102;53.548;9.926;2023-08-07T14:14:14;17.70;99.90
17954;DHT22;9102;53.548;9.926;2023-08-07T14:16:41;17.80;99.90
17954;DHT22;9102;53.548;9.926;2023-08-07T14:19:08;17.80;99.90
17954;DHT22;9102;53.548;9.926;2023-08-07T14:21:35;17.70;99.90
17954;DHT22;9102;53.548;9.926;2023-08-07T14:24:02;17.50;99.90
17954;DHT22;9102;53.548;9.926;2023-08-07T14:26:31;17.50;99.90
17954;DHT22;9102;53.548;9.926;2023-08-07T14:28:57;17.20;99.90
17954;DHT22;9102;53.548;9.926;2023-08-07T14:31:24;16.80;99.90
17954;DHT22;9102;53.548;9.926;2023-08-07T14:33:51;16.70;99.90
17954;DHT22;9102;53.548;9.926;2023-08-07T14:36:18;16.50;99.90
17954;DHT22;9102;53.548;9.926;2023-08-07T14:38:45;16.60;99.90
17954;DHT22;9102;53.548;9.926;2023-08-07T14:41:12;16.80;99.90
17954;DHT22;9102;53.548;9.926;2023-08-07T14:43:40;17.10;99.90
17954;DHT22;9102;53.548;9.926;2023-08-07T14:46:07;17.10;99.90
17954;DHT22;9102;53.548;9.926;2023-08-07T14:48:33;17.30;99.90
17954;DHT22;9102;53.548;9.926;2023-08-07T14:51:00;17.30;99.90
17954;DHT22;9102;53.548;9.926;2023-08-07T14:53:27;17.50;99.90
17954;DHT22;9102;53.548;9.926;2023-08-07T14:55:54;17.40;99.90
17954;DHT22;9102;53.548;9.926;2023-08-07T14:58:21;17.40;99.90
17954;DHT22;9102;53.548;9.926;2023-08-07T15:00:51;17.30;99.90
17954;DHT22;9102;53.548;9.926;2023-08-07T15:03:19;17.20;99.90
17954;DHT22;9102;53.548;9.926;2023-08-07T15:05:46;16.90;99.90
17954;DHT22;9102;53.548;9.926;2023-08-07T15:08:13;16.90;99.90
17954;DHT22;9102;53.548;9.926;2023-08-07T15:10:40;16.90;99.90
17954;DHT22;9102;53.548;9.926;2023-08-07T15:13:07;17.00;99.90
17954;DHT22;9102;53.548;9.926;2023-08-07T15:15:34;17.20;99.90
17954;DHT22;9102;53.548;9.926;2023-08-07T15:18:02;17.50;99.90
17954;DHT22;9102;53.548;9.926;2023-08-07T15:20:33;17.60;99.90
17954;DHT22;9102;53.548;9.926;2023-08-07T15:23:00;17.70;99.90
17954;DHT22;9102;53.548;9.926;2023-08-07T15:25:27;17.70;99.90
17954;DHT22;9102;53.548;9.926;2023-08-07T15:27:54;17.80;99.90
17954;DHT22;9102;53.548;9.926;2023-08-07T15:30:26;17.50;99.90
17954;DHT22;9102;53.548;9.926;2023-08-07T15:32:54;17.40;99.90
17954;DHT22;9102;53.548;9.926;2023-08-07T15:35:22;17.30;99.90
17954;DHT22;9102;53.548;9.926;2023-08-07T15:37:49;17.50;99.90
17954;DHT22;9102;53.548;9.926;2023-08-07T15:40:16;17.40;99.90
17954;DHT22;9102;53.548;9.926;2023-08-07T15:42:43;17.30;99.90
17954;DHT22;9102;53.548;9.926;2023-08-07T15:45:11;17.10;99.90
17954;DHT22;9102;53.548;9.926;2023-08-07T15:47:38;16.90;99.90